Time;durP1;ratioP1;P1;durP2;ratioP2;P2;SDS_P1;SDS_P2;PMS_P1;PMS_P2;Temp;Humidity;BMP_temperature;BMP_pressure;BME280_temperature;BME280_humidity;BME280_pressure;Samples;Min_cycle;Max_cycle;Signal;HPM_P1;HPM_P2
2023/04/12 00:01:04;;;;;;;;;;;;;;;9.81;60.22;99397.13;4379968;32;34402;-89
2023/04/12 00:03:36;;;;;;;;;;;;;;;9.79;60.47;99389.28;4379988;32;34492;-88
2023/04/12 00:06:06;;;;;;;;;;;;;;;9.83;60.24;99375.03;4379530;32;32943;-89
2023/04/12 00:08:34;;;;;;;;;;;;;;;9.93;59.93;99380.72;4379857;32;33314;-88
2023/04/12 00:11:01;;;;;;;;;;;;;;;9.46;61.21;99386.44;4393194;32;34645;-89
2023/04/12 00:13:30;;;;;;;;;;;;;;;10.17;58.51;99373.41;4387545;32;32689;-88
2023/04/12 00:15:58;;;;;;;;;;;;;;;10.08;58.96;99379.97;4370299;32;34210;-88
2023/04/12 00:18:26;;;;;;;;;;;;;;;10.12;58.69;99378.91;4386143;32;32947;-89
2023/04/12 00:20:56;;;;;;;;;;;;;;;9.66;59.71;99390.78;4391978;32;33722;-89
2023/04/12 00:23:25;;;;;;;;;;;;;;;9.85;59.55;99393.41;4380256;32;31435;-89
2023/04/12 00:25:52;;;;;;;;;;;;;;;9.96;59.22;99389.31;4384399;32;32729;-89
2023/04/12 00:28:20;;;;;;;;;;;;;;;9.86;59.68;99395.09;4380221;32;33140;-88
2023/04/12 00:30:49;;;;;;;;;;;;;;;9.81;59.50;99395.31;4392577;32;34160;-89
2023/04/12 00:33:16;;;;;;;;;;;;;;;9.62;60.46;99382.16;4380227;32;33065;-88
2023/04/12 00:35:44;;;;;;;;;;;;;;;9.70;60.14;99390.56;4380358;32;32662;-88
2023/04/12 00:38:18;;;;;;;;;;;;;;;9.57;60.89;99375.37;4386004;32;33072;-90
2023/04/12 00:41:06;;;;;;;;;;;;;;;9.48;60.99;99372.25;4384375;32;33256;-90
2023/04/12 00:43:48;;;;;;;;;;;;;;;10.09;58.86;99375.56;4379448;32;33300;-89
2023/04/12 00:46:31;;;;;;;;;;;;;;;9.78;59.67;99365.59;4421134;32;33225;-88
2023/04/12 00:49:40;;;;;;;;;;;;;;;9.56;60.41;99368.41;4400906;32;33204;-89
2023/04/12 00:52:14;;;;;;;;;;;;;;;9.71;59.92;99367.69;4404856;32;33613;-90
2023/04/12 00:54:55;;;;;;;;;;;;;;;9.97;58.74;99364.69;4404798;32;32038;-92
2023/04/12 00:57:47;;;;;;;;;;;;;;;9.92;58.92;99371.97;4407995;32;32745;-89
2023/04/12 01:00:51;;;;;;;;;;;;;;;9.65;60.16;99373.25;4388880;32;32668;-90
2023/04/12 01:03:21;;;;;;;;;;;;;;;9.74;59.42;99372.81;4399694;32;32549;-90
2023/04/12 01:06:09;;;;;;;;;;;;;;;10.09;58.42;99363.22;4384339;32;33178;-88
2023/04/12 01:08:39;;;;;;;;;;;;;;;9.81;59.37;99368.97;4410676;32;33356;-91
2023/04/12 01:11:32;;;;;;;;;;;;;;;9.42;60.71;99369.03;4401969;32;32790;-91
2023/04/12 01:14:03;;;;;;;;;;;;;;;9.94;58.61;99358.69;4386367;32;33266;-90
2023/04/12 01:16:49;;;;;;;;;;;;;;;9.95;58.88;99365.66;4384335;32;31947;-89
2023/04/12 01:19:30;;;;;;;;;;;;;;;9.76;59.64;99365.69;4384628;32;34099;-89
2023/04/12 01:22:06;;;;;;;;;;;;;;;9.79;59.46;99365.56;4408807;32;33470;-90
2023/04/12 01:25:15;;;;;;;;;;;;;;;9.25;61.38;99377.69;4398134;32;34160;-89
2023/04/12 01:27:45;;;;;;;;;;;;;;;9.34;61.40;99379.06;4339642;33;33340;-90
2023/04/12 01:30:14;;;;;;;;;;;;;;;9.32;60.86;99370.38;4337621;33;34036;-90
2023/04/12 01:32:46;;;;;;;;;;;;;;;9.06;62.04;99376.81;4357159;32;33584;-90
2023/04/12 01:35:18;;;;;;;;;;;;;;;9.15;61.18;99374.63;4381587;32;33726;-89
2023/04/12 01:37:45;;;;;;;;;;;;;;;9.40;60.45;99366.50;4373897;32;33549;-88
2023/04/12 01:40:16;;;;;;;;;;;;;;;9.43;60.12;99363.69;4385734;32;33366;-88
2023/04/12 01:42:45;;;;;;;;;;;;;;;9.50;60.24;99364.28;4386887;32;33492;-88
2023/04/12 01:45:13;;;;;;;;;;;;;;;9.92;58.49;99365.81;4387409;32;33424;-88
2023/04/12 01:47:41;;;;;;;;;;;;;;;9.70;59.36;99364.19;4386248;32;31853;-88
2023/04/12 01:50:10;;;;;;;;;;;;;;;9.60;59.00;99373.47;4387812;32;32866;-90
2023/04/12 01:53:17;;;;;;;;;;;;;;;9.51;59.72;99375.69;4386864;32;32905;-91
2023/04/12 01:56:08;;;;;;;;;;;;;;;9.57;59.30;99370.97;4388947;32;33107;-91
2023/04/12 01:58:56;;;;;;;;;;;;;;;9.38;60.13;99378.84;4376975;32;32356;-91
2023/04/12 02:02:11;;;;;;;;;;;;;;;9.33;60.09;99372.09;4368777;32;33867;-90
2023/04/12 02:04:40;;;;;;;;;;;;;;;9.35;59.78;99370.22;4366327;32;33237;-89
2023/04/12 02:07:08;;;;;;;;;;;;;;;9.35;59.75;99371.13;4351410;32;33295;-88
2023/04/12 02:09:37;;;;;;;;;;;;;;;9.34;59.57;99369.37;4367449;32;32742;-88
2023/04/12 02:12:05;;;;;;;;;;;;;;;9.25;59.98;99369.78;4371105;32;32964;-89
2023/04/12 02:14:34;;;;;;;;;;;;;;;9.10;60.46;99365.22;4349605;32;34176;-89
2023/04/12 02:17:03;;;;;;;;;;;;;;;9.04;60.87;99374.25;4360675;32;32950;-89
2023/04/12 02:19:31;;;;;;;;;;;;;;;9.04;60.92;99370.78;4367440;32;34132;-89
2023/04/12 02:22:01;;;;;;;;;;;;;;;9.10;60.54;99371.34;4364477;32;32671;-88
2023/04/12 02:24:32;;;;;;;;;;;;;;;9.01;60.63;99377.00;4377569;32;33216;-89
2023/04/12 02:27:01;;;;;;;;;;;;;;;9.06;60.60;99369.75;4378781;32;33477;-89
2023/04/12 02:29:30;;;;;;;;;;;;;;;9.11;60.35;99369.56;4366292;32;34008;-89
2023/04/12 02:32:00;;;;;;;;;;;;;;;8.57;62.41;99373.69;4378617;32;32650;-87
2023/04/12 02:34:32;;;;;;;;;;;;;;;8.88;61.29;99362.69;4364450;32;33281;-89
2023/04/12 02:37:08;;;;;;;;;;;;;;;8.86;60.89;99359.25;4379693;32;34125;-89
2023/04/12 02:39:40;;;;;;;;;;;;;;;8.32;62.98;99364.16;4377136;32;32520;-89
2023/04/12 02:42:08;;;;;;;;;;;;;;;8.55;62.55;99372.91;4365862;32;33442;-88
2023/04/12 02:44:36;;;;;;;;;;;;;;;8.86;60.90;99360.09;4366214;32;33001;-88
2023/04/12 02:47:06;;;;;;;;;;;;;;;8.40;62.75;99364.72;4378210;32;33880;-89
2023/04/12 02:49:37;;;;;;;;;;;;;;;8.71;61.81;99358.16;4379662;32;33198;-91
2023/04/12 02:52:20;;;;;;;;;;;;;;;8.56;61.90;99359.66;4411827;32;32922;-91
2023/04/12 02:55:20;;;;;;;;;;;;;;;8.82;61.13;99355.03;4411898;32;32579;-91
2023/04/12 02:58:17;;;;;;;;;;;;;;;8.87;60.82;99353.91;4385616;32;33546;-91
2023/04/12 03:01:11;;;;;;;;;;;;;;;8.61;61.67;99356.84;4407175;32;31901;-91
2023/04/12 03:03:56;;;;;;;;;;;;;;;8.90;60.60;99348.53;4392819;32;33163;-88
2023/04/12 03:09:00;;;;;;;;;;;;;;;9.12;59.74;99355.50;4381863;32;32899;-88
2023/04/12 03:11:32;;;;;;;;;;;;;;;8.85;60.51;99350.50;4379910;32;33043;-87
2023/04/12 03:14:01;;;;;;;;;;;;;;;8.93;60.26;99348.41;4380416;32;33225;-87
2023/04/12 03:16:28;;;;;;;;;;;;;;;8.72;60.88;99344.06;4379716;32;32751;-87
2023/04/12 03:18:59;;;;;;;;;;;;;;;8.61;61.87;99336.63;4393151;32;34841;-87
2023/04/12 03:21:30;;;;;;;;;;;;;;;8.49;61.94;99346.81;4380566;32;33102;-90
2023/04/12 03:24:13;;;;;;;;;;;;;;;8.72;61.01;99339.66;4424438;32;33583;-91
2023/04/12 03:27:07;;;;;;;;;;;;;;;9.00;59.99;99332.31;4388577;32;34690;-91
2023/04/12 03:29:59;;;;;;;;;;;;;;;9.25;59.06;99332.91;4379673;32;34114;-90
2023/04/12 03:32:51;;;;;;;;;;;;;;;9.07;59.08;99334.62;4400608;32;32198;-90
2023/04/12 03:35:44;;;;;;;;;;;;;;;8.78;60.12;99328.00;4375221;32;33688;-92
2023/04/12 03:38:35;;;;;;;;;;;;;;;8.53;60.66;99327.34;4362305;32;34148;-88
2023/04/12 03:41:09;;;;;;;;;;;;;;;8.84;60.18;99322.47;4374718;32;33142;-88
2023/04/12 03:43:37;;;;;;;;;;;;;;;8.81;60.26;99317.34;4379743;32;32308;-89
2023/04/12 03:46:05;;;;;;;;;;;;;;;8.95;59.96;99319.34;4359292;32;34315;-89
2023/04/12 03:48:35;;;;;;;;;;;;;;;9.25;58.42;99327.66;4377766;32;33401;-89
2023/04/12 03:51:06;;;;;;;;;;;;;;;9.07;58.79;99325.84;4377042;32;33317;-88
2023/04/12 03:53:35;;;;;;;;;;;;;;;9.11;58.30;99320.38;4377753;32;32135;-88
2023/04/12 03:56:06;;;;;;;;;;;;;;;9.29;58.00;99329.22;4377499;32;33824;-89
2023/04/12 03:58:35;;;;;;;;;;;;;;;9.41;57.33;99317.28;4364947;32;33749;-89
2023/04/12 04:01:08;;;;;;;;;;;;;;;9.62;56.57;99325.94;4375167;32;34649;-88
2023/04/12 04:03:36;;;;;;;;;;;;;;;9.16;58.03;99326.31;4364291;32;33347;-88
2023/04/12 04:06:05;;;;;;;;;;;;;;;9.38;57.28;99317.41;4377454;32;34162;-87
2023/04/12 04:08:36;;;;;;;;;;;;;;;9.36;57.17;99325.38;4365214;32;33759;-88
2023/04/12 04:11:15;;;;;;;;;;;;;;;9.32;57.38;99328.22;4376302;32;33365;-88
2023/04/12 04:13:45;;;;;;;;;;;;;;;9.03;58.28;99327.78;4389650;32;31814;-85
2023/04/12 04:16:16;;;;;;;;;;;;;;;9.01;58.26;99320.84;4389545;32;33463;-86
2023/04/12 04:18:45;;;;;;;;;;;;;;;8.68;59.50;99322.28;4377317;32;34108;-86
2023/04/12 04:21:14;;;;;;;;;;;;;;;8.68;59.61;99321.41;4377043;32;32863;-87
2023/04/12 04:23:44;;;;;;;;;;;;;;;8.62;59.66;99321.69;4364792;32;32868;-87
2023/04/12 04:26:14;;;;;;;;;;;;;;;7.73;62.19;99322.72;4377022;32;34160;-87
2023/04/12 04:28:44;;;;;;;;;;;;;;;8.29;60.21;99323.97;4352915;32;34289;-87
2023/04/12 04:31:12;;;;;;;;;;;;;;;8.28;60.94;99320.47;4377243;32;34126;-88
2023/04/12 04:33:42;;;;;;;;;;;;;;;8.11;61.41;99315.91;4377203;32;32990;-87
2023/04/12 04:36:15;;;;;;;;;;;;;;;8.20;61.35;99315.53;4377176;32;33827;-87
2023/04/12 04:38:44;;;;;;;;;;;;;;;8.29;61.09;99306.41;4404484;32;33889;-87
2023/04/12 04:41:21;;;;;;;;;;;;;;;8.13;61.34;99307.97;4391694;32;33216;-87
2023/04/12 04:43:53;;;;;;;;;;;;;;;8.03;61.19;99315.37;4404363;32;33314;-87
2023/04/12 04:46:22;;;;;;;;;;;;;;;8.38;60.75;99305.19;4378863;32;32962;-86
2023/04/12 04:48:54;;;;;;;;;;;;;;;8.17;61.38;99314.81;4391652;32;33964;-87
2023/04/12 04:51:31;;;;;;;;;;;;;;;8.26;60.85;99314.44;4403089;32;33336;-87
2023/04/12 04:54:01;;;;;;;;;;;;;;;8.11;61.35;99320.31;4401536;32;33495;-87
2023/04/12 04:56:31;;;;;;;;;;;;;;;8.02;62.06;99315.44;4378519;32;34002;-87
2023/04/12 05:01:41;;;;;;;;;;;;;;;8.33;61.07;99305.34;4388150;32;32927;-87
2023/04/12 05:04:15;;;;;;;;;;;;;;;8.45;60.76;99299.63;4400589;32;34032;-87
2023/04/12 05:06:45;;;;;;;;;;;;;;;8.76;59.78;99298.25;4381337;32;32607;-89
2023/04/12 05:09:15;;;;;;;;;;;;;;;8.78;60.02;99301.66;4389632;32;34505;-86
2023/04/12 05:11:46;;;;;;;;;;;;;;;9.12;58.86;99300.19;4388637;32;35359;-86
2023/04/12 05:14:15;;;;;;;;;;;;;;;8.94;58.99;99304.50;4401962;32;33268;-87
2023/04/12 05:16:45;;;;;;;;;;;;;;;8.93;59.11;99306.28;4401711;32;33719;-87
2023/04/12 05:19:20;;;;;;;;;;;;;;;8.69;59.61;99302.94;4398441;32;33416;-86
2023/04/12 05:21:49;;;;;;;;;;;;;;;9.05;58.90;99310.13;4388142;32;33559;-84
2023/04/12 05:24:18;;;;;;;;;;;;;;;9.11;58.70;99316.88;4391645;32;34369;-86
2023/04/12 05:26:49;;;;;;;;;;;;;;;9.06;58.71;99311.81;4389746;32;34286;-86
2023/04/12 05:29:17;;;;;;;;;;;;;;;9.17;58.47;99308.72;4391398;32;33855;-86
2023/04/12 05:31:46;;;;;;;;;;;;;;;8.87;59.04;99317.06;4391327;32;33373;-86
2023/04/12 05:34:14;;;;;;;;;;;;;;;9.46;57.64;99307.37;4378341;32;32340;-87
2023/04/12 05:36:53;;;;;;;;;;;;;;;9.70;56.93;99313.25;4399926;32;34494;-87
2023/04/12 05:39:22;;;;;;;;;;;;;;;9.93;56.56;99309.50;4402318;32;33098;-87
2023/04/12 05:41:52;;;;;;;;;;;;;;;9.95;56.82;99308.50;4388403;32;33726;-87
2023/04/12 05:44:20;;;;;;;;;;;;;;;9.83;56.95;99309.09;4377785;32;32295;-87
2023/04/12 05:46:47;;;;;;;;;;;;;;;9.70;56.96;99298.28;4404251;32;34096;-87
2023/04/12 05:49:35;;;;;;;;;;;;;;;10.27;55.55;99302.59;4392274;32;34953;-87
2023/04/12 05:52:12;;;;;;;;;;;;;;;10.39;55.18;99300.16;4401046;32;34338;-87
2023/04/12 05:54:41;;;;;;;;;;;;;;;10.27;55.00;99282.34;4403488;32;33602;-87
2023/04/12 05:57:11;;;;;;;;;;;;;;;10.03;55.99;99294.09;4376337;32;32954;-87
2023/04/12 05:59:44;;;;;;;;;;;;;;;10.03;55.31;99291.44;4389333;32;35148;-87
2023/04/12 06:02:19;;;;;;;;;;;;;;;9.89;56.01;99298.25;4390370;32;32837;-87
2023/04/12 06:04:48;;;;;;;;;;;;;;;10.16;55.25;99284.59;4386630;32;32598;-86
2023/04/12 06:07:20;;;;;;;;;;;;;;;10.47;54.86;99294.50;4378405;32;33240;-88
2023/04/12 06:09:48;;;;;;;;;;;;;;;10.46;55.30;99301.59;4399537;32;34724;-88
2023/04/12 06:12:31;;;;;;;;;;;;;;;10.62;55.01;99298.16;4376077;32;33446;-88
2023/04/12 06:17:42;;;;;;;;;;;;;;;10.86;53.86;99302.13;4403629;32;31150;-88
2023/04/12 06:20:11;;;;;;;;;;;;;;;11.30;52.99;99298.91;4402285;32;33995;-88
2023/04/12 06:22:39;;;;;;;;;;;;;;;11.13;52.69;99296.34;4377666;32;33375;-88
2023/04/12 06:25:09;;;;;;;;;;;;;;;10.74;53.87;99294.88;4402799;32;33098;-88
2023/04/12 06:27:39;;;;;;;;;;;;;;;10.80;53.77;99304.25;4388558;32;33265;-88
2023/04/12 06:30:08;;;;;;;;;;;;;;;10.69;54.16;99315.37;4382029;32;33424;-88
2023/04/12 06:32:38;;;;;;;;;;;;;;;10.83;54.26;99307.59;4401873;32;34313;-87
2023/04/12 06:35:13;;;;;;;;;;;;;;;11.37;52.62;99318.78;4403129;32;32311;-92
2023/04/12 06:38:05;;;;;;;;;;;;;;;11.59;52.43;99322.91;4386200;32;32628;-92
2023/04/12 06:40:46;;;;;;;;;;;;;;;11.27;53.09;99315.78;4393880;32;33057;-91
2023/04/12 06:46:28;;;;;;;;;;;;;;;11.50;52.89;99325.09;4379020;32;31754;-92
2023/04/12 06:49:10;;;;;;;;;;;;;;;11.70;52.87;99317.84;4376203;32;32161;-91
2023/04/12 06:52:02;;;;;;;;;;;;;;;11.68;53.04;99314.44;4383498;32;33095;-92
2023/04/12 06:54:50;;;;;;;;;;;;;;;11.94;52.05;99311.22;4403306;32;34349;-92
2023/04/12 06:57:33;;;;;;;;;;;;;;;12.05;52.31;99311.44;4392908;32;32342;-91
2023/04/12 07:00:24;;;;;;;;;;;;;;;11.93;52.39;99311.31;4347590;32;32711;-91
2023/04/12 07:03:09;;;;;;;;;;;;;;;12.40;51.26;99305.91;4390606;32;33933;-94
2023/04/12 07:05:54;;;;;;;;;;;;;;;12.30;51.10;99302.94;4424092;32;33656;-95
2023/04/12 07:08:48;;;;;;;;;;;;;;;12.48;50.12;99310.72;4412702;32;33825;-92
2023/04/12 07:11:23;;;;;;;;;;;;;;;12.51;50.94;99303.47;4399478;32;33549;-92
2023/04/12 07:14:14;;;;;;;;;;;;;;;12.41;51.13;99302.31;4382275;32;32789;-92
2023/04/12 07:16:54;;;;;;;;;;;;;;;12.71;50.39;99307.56;4376214;32;33928;-92
2023/04/12 07:19:38;;;;;;;;;;;;;;;12.59;50.41;99303.03;4394249;32;32019;-92
2023/04/12 07:22:21;;;;;;;;;;;;;;;12.34;50.43;99311.53;4413372;32;33311;-92
2023/04/12 07:25:08;;;;;;;;;;;;;;;12.52;49.10;99299.87;4381391;32;32976;-93
2023/04/12 07:28:02;;;;;;;;;;;;;;;12.56;49.59;99293.44;4395670;32;33189;-90
2023/04/12 07:30:46;;;;;;;;;;;;;;;12.95;49.61;99288.47;4413369;32;33458;-92
2023/04/12 07:33:41;;;;;;;;;;;;;;;13.07;48.07;99277.97;4394030;32;34699;-92
2023/04/12 07:36:15;;;;;;;;;;;;;;;13.07;47.90;99285.06;4368404;32;33711;-92
2023/04/12 07:39:13;;;;;;;;;;;;;;;13.32;48.54;99285.25;4374921;32;34335;-92
2023/04/12 07:41:52;;;;;;;;;;;;;;;13.64;47.63;99273.56;4423257;32;32832;-92
2023/04/12 07:44:48;;;;;;;;;;;;;;;13.27;47.72;99286.50;4383968;32;35508;-91
2023/04/12 07:47:32;;;;;;;;;;;;;;;13.69;46.19;99280.25;4393578;32;34043;-93
2023/04/12 07:50:17;;;;;;;;;;;;;;;13.53;46.60;99288.38;4388845;32;33653;-93
2023/04/12 07:53:21;;;;;;;;;;;;;;;13.77;46.46;99274.47;4415429;32;33199;-93
2023/04/12 07:56:17;;;;;;;;;;;;;;;14.04;45.64;99267.31;4399542;32;35517;-93
2023/04/12 07:58:59;;;;;;;;;;;;;;;13.69;44.81;99272.31;4357373;32;33374;-93
2023/04/12 08:01:55;;;;;;;;;;;;;;;14.07;43.57;99274.25;4445248;32;35448;-92
2023/04/12 08:04:38;;;;;;;;;;;;;;;13.88;44.89;99282.56;4387237;32;32851;-92
2023/04/12 08:07:31;;;;;;;;;;;;;;;14.50;44.43;99277.56;4423677;32;32746;-91
2023/04/12 08:10:11;;;;;;;;;;;;;;;14.81;43.37;99276.31;4412629;32;33961;-91
2023/04/12 08:15:55;;;;;;;;;;;;;;;14.73;42.13;99270.66;4360009;32;25915;-92
2023/04/12 08:18:39;;;;;;;;;;;;;;;14.49;44.23;99283.81;4422263;32;32575;-92
2023/04/12 08:21:35;;;;;;;;;;;;;;;14.99;41.64;99287.44;4408983;32;34909;-92
2023/04/12 08:24:18;;;;;;;;;;;;;;;14.95;40.66;99291.28;4397299;32;33924;-92
2023/04/12 08:27:12;;;;;;;;;;;;;;;14.79;40.59;99280.84;4407870;32;32105;-92
2023/04/12 08:29:52;;;;;;;;;;;;;;;14.70;41.72;99276.19;4427280;32;32861;-91
2023/04/12 08:32:44;;;;;;;;;;;;;;;14.44;42.96;99287.72;4401154;32;33751;-91
2023/04/12 08:38:23;;;;;;;;;;;;;;;14.75;40.69;99276.72;4429292;32;31850;-93
2023/04/12 08:41:04;;;;;;;;;;;;;;;15.18;40.05;99276.37;4408964;32;33701;-93
2023/04/12 08:43:56;;;;;;;;;;;;;;;14.95;40.44;99277.13;4438310;32;32689;-92
2023/04/12 08:46:38;;;;;;;;;;;;;;;15.21;39.88;99270.84;4399961;32;32300;-92
2023/04/12 08:49:23;;;;;;;;;;;;;;;15.33;37.57;99269.97;4419553;32;32360;-91
2023/04/12 08:52:16;;;;;;;;;;;;;;;15.26;37.13;99265.19;4396004;32;33109;-93
2023/04/12 08:55:01;;;;;;;;;;;;;;;15.20;37.96;99268.28;4396755;32;33811;-93
2023/04/12 08:57:55;;;;;;;;;;;;;;;15.10;38.70;99263.63;4413780;32;32670;-93
2023/04/12 09:00:35;;;;;;;;;;;;;;;15.16;38.37;99261.50;4419885;32;32029;-92
2023/04/12 09:03:28;;;;;;;;;;;;;;;15.27;39.61;99265.06;4404736;32;33916;-92
2023/04/12 09:06:11;;;;;;;;;;;;;;;15.70;37.17;99255.81;4427857;32;32693;-92
2023/04/12 09:08:55;;;;;;;;;;;;;;;15.29;38.33;99257.00;4401641;32;32992;-92
2023/04/12 09:11:50;;;;;;;;;;;;;;;15.78;35.39;99256.97;4418676;32;33905;-92
2023/04/12 09:14:29;;;;;;;;;;;;;;;15.35;36.66;99272.50;4395692;32;33192;-93
2023/04/12 09:17:24;;;;;;;;;;;;;;;15.99;36.60;99262.50;4430595;32;33306;-92
2023/04/12 09:20:17;;;;;;;;;;;;;;;16.05;35.43;99256.72;4414558;32;33370;-92
2023/04/12 09:23:04;;;;;;;;;;;;;;;15.92;36.50;99261.28;4416704;32;31682;-92
2023/04/12 09:25:56;;;;;;;;;;;;;;;16.22;34.66;99251.94;4438923;32;33925;-92
2023/04/12 09:28:45;;;;;;;;;;;;;;;15.84;33.65;99247.66;4398284;32;35765;-91
2023/04/12 09:31:39;;;;;;;;;;;;;;;15.05;35.44;99254.28;4403501;32;34663;-92
2023/04/12 09:34:29;;;;;;;;;;;;;;;16.18;33.60;99246.00;4398683;32;34812;-92
2023/04/12 09:37:25;;;;;;;;;;;;;;;16.68;33.80;99238.59;4416234;32;33435;-93
2023/04/12 09:40:06;;;;;;;;;;;;;;;16.30;33.47;99238.91;4400043;32;33392;-93
2023/04/12 09:43:02;;;;;;;;;;;;;;;16.56;32.87;99229.72;4392953;32;34685;-92
2023/04/12 09:45:44;;;;;;;;;;;;;;;16.74;33.79;99226.66;4404104;32;32563;-94
2023/04/12 09:48:49;;;;;;;;;;;;;;;16.68;31.59;99222.63;4404651;32;35565;-92
2023/04/12 09:51:35;;;;;;;;;;;;;;;16.29;32.48;99218.56;4370036;32;32627;-92
2023/04/12 09:54:22;;;;;;;;;;;;;;;15.93;33.02;99225.69;4445017;32;33022;-92
2023/04/12 09:57:25;;;;;;;;;;;;;;;15.75;33.64;99221.72;4426486;32;34078;-93
2023/04/12 10:00:16;;;;;;;;;;;;;;;16.09;33.61;99220.03;4456411;32;34840;-92
2023/04/12 10:03:06;;;;;;;;;;;;;;;16.27;33.54;99209.81;4432696;32;32855;-93
2023/04/12 10:06:04;;;;;;;;;;;;;;;16.53;32.77;99210.50;4431115;32;34873;-91
2023/04/12 10:08:43;;;;;;;;;;;;;;;17.23;29.98;99212.06;4415016;32;31663;-91
2023/04/12 10:11:26;;;;;;;;;;;;;;;16.76;30.41;99206.91;4400702;32;33293;-93
2023/04/12 10:14:17;;;;;;;;;;;;;;;16.53;30.62;99211.34;4400608;32;33624;-91
2023/04/12 10:16:58;;;;;;;;;;;;;;;16.70;30.77;99209.16;4401364;32;32876;-92
2023/04/12 10:19:41;;;;;;;;;;;;;;;16.75;32.26;99202.53;4432004;32;31936;-91
2023/04/12 10:22:34;;;;;;;;;;;;;;;17.08;31.84;99209.66;4417043;32;33216;-91
2023/04/12 10:25:21;;;;;;;;;;;;;;;16.76;30.30;99200.69;4417991;32;32802;-92
2023/04/12 10:28:20;;;;;;;;;;;;;;;17.43;29.07;99192.66;4420371;32;32552;-93
2023/04/12 10:31:29;;;;;;;;;;;;;;;17.47;30.07;99198.56;4415574;32;34102;-92
2023/04/12 10:34:14;;;;;;;;;;;;;;;17.28;31.06;99205.41;4401350;32;32946;-92
2023/04/12 10:36:58;;;;;;;;;;;;;;;17.79;30.04;99203.97;4431065;32;33112;-91
2023/04/12 10:39:51;;;;;;;;;;;;;;;17.61;31.30;99196.47;4409431;32;33080;-92
2023/04/12 10:42:33;;;;;;;;;;;;;;;18.06;27.55;99190.12;4398211;32;33092;-92
2023/04/12 10:45:23;;;;;;;;;;;;;;;18.08;28.90;99185.50;4392080;32;33849;-93
2023/04/12 10:48:05;;;;;;;;;;;;;;;18.26;27.66;99180.41;4396296;32;33998;-92
2023/04/12 10:51:24;;;;;;;;;;;;;;;17.96;28.50;99168.69;4395296;32;32740;-93
2023/04/12 10:54:16;;;;;;;;;;;;;;;17.70;29.21;99183.31;4439544;32;33716;-93
2023/04/12 10:57:07;;;;;;;;;;;;;;;17.75;29.14;99168.66;4387781;32;33341;-92
2023/04/12 10:59:56;;;;;;;;;;;;;;;17.97;27.11;99159.69;4376504;32;32979;-93
2023/04/12 11:03:04;;;;;;;;;;;;;;;17.85;28.08;99158.03;4416866;32;35443;-92
2023/04/12 11:06:02;;;;;;;;;;;;;;;18.02;28.12;99157.47;4408891;32;32535;-92
2023/04/12 11:08:44;;;;;;;;;;;;;;;17.90;27.01;99163.88;4397885;32;32957;-92
2023/04/12 11:11:33;;;;;;;;;;;;;;;18.27;27.79;99158.06;4418776;32;33373;-89
2023/04/12 11:14:20;;;;;;;;;;;;;;;18.75;25.70;99165.50;4380075;32;33429;-91
2023/04/12 11:17:16;;;;;;;;;;;;;;;18.61;27.25;99154.19;4390375;32;33741;-93
2023/04/12 11:19:51;;;;;;;;;;;;;;;19.09;25.57;99142.00;4394968;32;33397;-93
2023/04/12 11:22:45;;;;;;;;;;;;;;;19.08;27.47;99145.63;4394868;32;34099;-92
2023/04/12 11:25:27;;;;;;;;;;;;;;;18.86;25.36;99136.00;4395620;32;33207;-93
2023/04/12 11:28:10;;;;;;;;;;;;;;;18.52;26.44;99138.09;4398272;32;33834;-91
2023/04/12 11:30:57;;;;;;;;;;;;;;;18.42;26.54;99154.09;4446454;32;33297;-94
2023/04/12 11:36:32;;;;;;;;;;;;;;;18.96;25.38;99134.22;4425307;32;20037;-93
2023/04/12 11:39:12;;;;;;;;;;;;;;;19.20;25.62;99139.19;4426411;32;32729;-93
2023/04/12 11:42:11;;;;;;;;;;;;;;;18.86;26.40;99144.88;4409175;32;35527;-92
2023/04/12 11:44:51;;;;;;;;;;;;;;;19.33;25.05;99144.28;4412254;32;33918;-92
2023/04/12 11:47:43;;;;;;;;;;;;;;;19.24;24.24;99150.47;4401973;32;32391;-95
2023/04/12 11:50:27;;;;;;;;;;;;;;;19.32;24.41;99131.87;4440671;32;31848;-92
2023/04/12 11:53:26;;;;;;;;;;;;;;;19.31;24.54;99127.50;4414337;32;34758;-92
2023/04/12 11:56:07;;;;;;;;;;;;;;;19.46;26.04;99131.47;4415016;32;33379;-92
2023/04/12 11:58:51;;;;;;;;;;;;;;;19.19;26.69;99133.00;4413414;32;34666;-94
2023/04/12 12:01:49;;;;;;;;;;;;;;;19.35;26.69;99128.94;4417047;32;34662;-93
2023/04/12 12:04:33;;;;;;;;;;;;;;;19.77;25.96;99121.50;4430828;32;33158;-93
2023/04/12 12:07:19;;;;;;;;;;;;;;;19.65;24.77;99118.16;4427960;32;33126;-92
2023/04/12 12:09:59;;;;;;;;;;;;;;;19.90;23.62;99107.81;4417118;32;33066;-93
2023/04/12 12:12:51;;;;;;;;;;;;;;;19.50;25.51;99111.47;4367720;32;32393;-89
2023/04/12 12:15:23;;;;;;;;;;;;;;;19.63;24.54;99104.03;4384006;32;36282;-93
2023/04/12 12:18:07;;;;;;;;;;;;;;;19.23;26.02;99101.47;4423407;32;33305;-92
2023/04/12 12:20:51;;;;;;;;;;;;;;;19.52;25.29;99092.59;4421128;32;33376;-92
2023/04/12 12:23:37;;;;;;;;;;;;;;;20.06;23.90;99086.63;4422372;32;33146;-92
2023/04/12 12:30:10;;;;;;;;;;;;;;;19.59;24.15;99085.69;4443397;32;33762;-93
2023/04/12 12:33:05;;;;;;;;;;;;;;;19.66;24.64;99079.66;4420654;32;34581;-93
2023/04/12 12:35:57;;;;;;;;;;;;;;;19.93;25.43;99078.03;4425921;32;32291;-91
2023/04/12 12:38:51;;;;;;;;;;;;;;;19.97;24.65;99070.56;4392321;32;34709;-90
2023/04/12 12:41:37;;;;;;;;;;;;;;;19.50;26.32;99073.97;4390662;32;32769;-91
2023/04/12 12:44:27;;;;;;;;;;;;;;;20.05;23.65;99068.88;4441329;32;33024;-90
2023/04/12 12:47:10;;;;;;;;;;;;;;;19.26;25.57;99073.56;4434841;32;32075;-91
2023/04/12 12:49:57;;;;;;;;;;;;;;;20.11;24.13;99064.75;4440392;32;34058;-91
2023/04/12 12:52:41;;;;;;;;;;;;;;;20.18;23.41;99061.34;4399110;32;34018;-90
2023/04/12 12:55:37;;;;;;;;;;;;;;;19.46;24.16;99059.19;4387653;32;35643;-88
2023/04/12 12:58:10;;;;;;;;;;;;;;;18.92;25.10;99060.56;4367170;32;33011;-89
2023/04/12 13:00:46;;;;;;;;;;;;;;;19.41;25.12;99066.78;4382655;32;33511;-90
2023/04/12 13:03:31;;;;;;;;;;;;;;;19.73;25.26;99055.81;4377996;32;33081;-90
2023/04/12 13:06:16;;;;;;;;;;;;;;;19.36;26.57;99052.97;4393589;32;33225;-90
2023/04/12 13:08:55;;;;;;;;;;;;;;;19.88;24.52;99058.88;4386628;32;32113;-91
2023/04/12 13:11:48;;;;;;;;;;;;;;;19.75;25.14;99047.63;4394408;32;33687;-91
2023/04/12 13:14:43;;;;;;;;;;;;;;;19.98;23.58;99046.31;4413939;32;34022;-89
2023/04/12 13:17:14;;;;;;;;;;;;;;;19.78;25.39;99052.69;4418093;32;33211;-90
2023/04/12 13:19:55;;;;;;;;;;;;;;;19.93;24.00;99046.75;4436632;32;32265;-90
2023/04/12 13:22:40;;;;;;;;;;;;;;;19.95;24.85;99041.25;4392606;32;33245;-90
2023/04/12 13:25:24;;;;;;;;;;;;;;;19.91;23.77;99037.16;4384022;32;33130;-90
2023/04/12 13:28:19;;;;;;;;;;;;;;;19.79;24.58;99032.97;4411375;32;34347;-90
2023/04/12 13:31:02;;;;;;;;;;;;;;;19.83;25.22;99034.38;4409466;32;32403;-90
2023/04/12 13:33:45;;;;;;;;;;;;;;;19.58;24.75;99031.28;4408285;32;32600;-89
2023/04/12 13:36:29;;;;;;;;;;;;;;;19.11;26.09;99031.16;4393833;32;32957;-90
2023/04/12 13:39:24;;;;;;;;;;;;;;;19.17;25.74;99024.38;4412061;32;33137;-90
2023/04/12 13:42:08;;;;;;;;;;;;;;;19.67;23.78;99006.34;4440323;32;32620;-90
2023/04/12 13:44:51;;;;;;;;;;;;;;;19.76;23.64;99019.88;4419929;32;33409;-91
2023/04/12 13:47:35;;;;;;;;;;;;;;;19.77;23.38;99019.72;4413499;32;33558;-91
2023/04/12 13:50:30;;;;;;;;;;;;;;;19.64;24.41;99005.78;4412392;32;34725;-90
2023/04/12 13:53:09;;;;;;;;;;;;;;;19.57;24.91;99010.84;4386856;32;31837;-90
2023/04/12 13:56:09;;;;;;;;;;;;;;;19.66;23.59;99018.06;4397168;32;34507;-90
2023/04/12 13:58:51;;;;;;;;;;;;;;;19.34;23.60;99012.97;4430828;32;33410;-91
2023/04/12 14:01:44;;;;;;;;;;;;;;;19.43;24.81;99012.13;4433100;32;33007;-91
2023/04/12 14:04:29;;;;;;;;;;;;;;;19.13;25.49;99015.81;4410962;32;33402;-91
2023/04/12 14:07:42;;;;;;;;;;;;;;;19.25;24.60;99008.47;4424893;32;32826;-92
2023/04/12 14:10:27;;;;;;;;;;;;;;;19.74;23.58;99005.75;4429130;32;32952;-90
2023/04/12 14:13:27;;;;;;;;;;;;;;;19.39;25.01;99009.87;4416011;32;34657;-91
2023/04/12 14:16:52;;;;;;;;;;;;;;;19.36;25.06;99011.00;4397709;32;31752;-92
2023/04/12 14:19:41;;;;;;;;;;;;;;;20.08;23.47;99006.06;4403305;32;34577;-91
2023/04/12 14:22:25;;;;;;;;;;;;;;;19.92;23.30;99006.69;4426685;32;33791;-91
2023/04/12 14:25:15;;;;;;;;;;;;;;;19.34;23.21;99004.09;4398707;32;33480;-92
2023/04/12 14:28:15;;;;;;;;;;;;;;;19.30;24.01;98994.66;4420593;32;34757;-92